Yellowstone Regional Airport
KCOD : now visible

Airfield :











YOU CAN JOIN US ON...

 
LOGIN :

Register | Disclaimer

   EN    FR    IT 

 









Legend :    VFR   Marginal VFR   IFR   Intensive IFR   Very Intensive IFR
Visi :
Ceiling :
>= 8 km
>= 3000ft
5 to 8 km
1000 to 3000 ft
1500m to 5 km
500 to 1000 ft
800 to 1500m
200 to 500 ft
< 800m
< 200 ft
Symbols :   Thunderstorms  Fog  Heavy snow  Heavy precipitations  Wind > 20 kt






- Airport Elevation : 5102 ft


KCOD - Yellowstone Regional

CURRENT METAR :
  • 201156Z AUTO 14003KT 10SM BKN070 OVC085 04/03 A2992 RMK AO2 SLP142 60000 70004 T00390028 10072 20033 53007

EXPIRED METARs :
  • 201056Z AUTO 05005KT 10SM FEW012 BKN045 OVC085 04/02 A2989 RMK AO2 RAB06E22 SLP129 P0000 T00390022
  • 200956Z AUTO 00000KT 10SM FEW049 BKN060 OVC090 04/03 A2990 RMK AO2 RAB08E49 SLP129 P0000 T00390028
  • 200937Z AUTO 05007KT 10SM -RA FEW023 BKN049 OVC060 04/03 A2989 RMK AO2 RAB08 P0000

TAF KCOD
Valid from the 20 at 12:00 until the 21 at 12:00 UTC


201137Z 2012/2112 35010KT P6SM VCSH SCT025 BKN040
FM201400 01007KT P6SM SCT027 BKN040
FM201800 05005KT P6SM SCT040 SCT100
FM210200 21007KT P6SM SCT100
KZLC FIR / North America



MET'MAP, your aeronautical weather chart ! - Copyright ORBIFLY December 2007 - Disclaimer

ORBIFLY MET'MAP TEAM :

Programming & Development : Alexandra Zaïnal
Concept & original design : Baudouin d'Aumeries
Assistance for programming : Marc-Olivier Méhu
Technical & hardware support : Manuel Goepfert

Contact : metmap@orbifly.com




SOURCES & CREDITS :

   NOAA       Earth
Advisory